Terminal Aerodrome Forecast
Issued by NWS

Home | Current Version | Previous Version | Graphics & Text | Print | Product List | Glossary On
Versions: 1 2 3 4 5 6 7 8 9 10 11 12 13 14 15 16 17 18 19 20 21 22 23 24 25
416
FTUS43 KBIS 172209 AAA
TAFDIK
TAF AMD
KDIK 172209Z 1722/1818 02009KT P6SM BKN150
     FM180400 09009KT 6SM -SHRA VCTS BKN050 OVC100CB
      TEMPO 1807/1810 BKN015 OVC070CB
     FM181000 10008KT P6SM SHRA OVC009=

USA.gov is the U.S. government's official web portal to all federal, state and local government web resources and services.